sensor_id;sensor_type;location;lat;lon;timestamp;temperature;humidity
18880;DHT22;9572;52.378;13.404;2024-02-16T00:01:53;10.20;99.90
18880;DHT22;9572;52.378;13.404;2024-02-16T00:04:19;10.10;99.90
18880;DHT22;9572;52.378;13.404;2024-02-16T00:06:46;10.10;99.90
18880;DHT22;9572;52.378;13.404;2024-02-16T00:09:14;10.10;99.90
18880;DHT22;9572;52.378;13.404;2024-02-16T00:11:42;10.10;99.90
18880;DHT22;9572;52.378;13.404;2024-02-16T00:14:10;10.00;99.90
18880;DHT22;9572;52.378;13.404;2024-02-16T00:16:37;9.90;99.90
18880;DHT22;9572;52.378;13.404;2024-02-16T00:19:04;9.90;99.90
18880;DHT22;9572;52.378;13.404;2024-02-16T00:21:31;9.90;99.90
18880;DHT22;9572;52.378;13.404;2024-02-16T00:23:57;9.90;99.90
18880;DHT22;9572;52.378;13.404;2024-02-16T00:26:24;9.90;99.90
18880;DHT22;9572;52.378;13.404;2024-02-16T00:28:52;9.90;99.90
18880;DHT22;9572;52.378;13.404;2024-02-16T00:31:19;9.90;99.90
18880;DHT22;9572;52.378;13.404;2024-02-16T00:33:46;9.80;99.90
18880;DHT22;9572;52.378;13.404;2024-02-16T00:36:13;9.80;99.90
18880;DHT22;9572;52.378;13.404;2024-02-16T00:38:40;9.80;99.90
18880;DHT22;9572;52.378;13.404;2024-02-16T00:41:07;9.80;99.90
18880;DHT22;9572;52.378;13.404;2024-02-16T00:43:34;9.70;99.90
18880;DHT22;9572;52.378;13.404;2024-02-16T00:46:02;9.70;99.90
18880;DHT22;9572;52.378;13.404;2024-02-16T00:48:29;9.70;99.90
18880;DHT22;9572;52.378;13.404;2024-02-16T00:50:56;9.60;99.90
18880;DHT22;9572;52.378;13.404;2024-02-16T00:53:23;9.70;99.90
18880;DHT22;9572;52.378;13.404;2024-02-16T00:55:50;9.70;99.90
18880;DHT22;9572;52.378;13.404;2024-02-16T00:58:17;9.70;99.90
18880;DHT22;9572;52.378;13.404;2024-02-16T01:00:45;9.70;99.90
18880;DHT22;9572;52.378;13.404;2024-02-16T01:03:13;9.70;99.90
18880;DHT22;9572;52.378;13.404;2024-02-16T01:05:40;9.70;99.90
18880;DHT22;9572;52.378;13.404;2024-02-16T01:08:07;9.60;99.90
18880;DHT22;9572;52.378;13.404;2024-02-16T01:10:34;9.60;99.90
18880;DHT22;9572;52.378;13.404;2024-02-16T01:13:01;9.60;99.90
18880;DHT22;9572;52.378;13.404;2024-02-16T01:15:29;9.60;99.90
18880;DHT22;9572;52.378;13.404;2024-02-16T01:17:56;9.50;99.90
18880;DHT22;9572;52.378;13.404;2024-02-16T01:20:27;9.50;99.90
18880;DHT22;9572;52.378;13.404;2024-02-16T01:22:56;9.40;99.90
18880;DHT22;9572;52.378;13.404;2024-02-16T01:25:23;9.30;99.90
18880;DHT22;9572;52.378;13.404;2024-02-16T01:27:50;9.20;99.90
18880;DHT22;9572;52.378;13.404;2024-02-16T01:30:17;9.10;99.90
18880;DHT22;9572;52.378;13.404;2024-02-16T01:32:45;9.10;99.90
18880;DHT22;9572;52.378;13.404;2024-02-16T01:35:12;9.00;99.90
18880;DHT22;9572;52.378;13.404;2024-02-16T01:37:42;8.90;99.90
18880;DHT22;9572;52.378;13.404;2024-02-16T01:40:09;8.90;99.90
18880;DHT22;9572;52.378;13.404;2024-02-16T01:42:40;8.90;99.90
18880;DHT22;9572;52.378;13.404;2024-02-16T01:45:07;8.80;99.90
18880;DHT22;9572;52.378;13.404;2024-02-16T01:47:36;8.80;99.90
18880;DHT22;9572;52.378;13.404;2024-02-16T01:50:03;8.80;99.90
18880;DHT22;9572;52.378;13.404;2024-02-16T01:52:31;8.80;99.90
18880;DHT22;9572;52.378;13.404;2024-02-16T01:55:01;8.80;99.90
18880;DHT22;9572;52.378;13.404;2024-02-16T01:57:28;8.70;99.90
18880;DHT22;9572;52.378;13.404;2024-02-16T01:59:55;8.70;99.90
18880;DHT22;9572;52.378;13.404;2024-02-16T02:02:22;8.70;99.90
18880;DHT22;9572;52.378;13.404;2024-02-16T02:04:49;8.70;99.90
18880;DHT22;9572;52.378;13.404;2024-02-16T02:07:16;8.60;99.90
18880;DHT22;9572;52.378;13.404;2024-02-16T02:09:43;8.60;99.90
18880;DHT22;9572;52.378;13.404;2024-02-16T02:12:11;8.60;99.90
18880;DHT22;9572;52.378;13.404;2024-02-16T02:14:39;8.60;99.90
18880;DHT22;9572;52.378;13.404;2024-02-16T02:17:07;8.60;99.90
18880;DHT22;9572;52.378;13.404;2024-02-16T02:19:34;8.70;99.90
18880;DHT22;9572;52.378;13.404;2024-02-16T02:22:01;8.70;99.90
18880;DHT22;9572;52.378;13.404;2024-02-16T02:24:30;8.70;99.90
18880;DHT22;9572;52.378;13.404;2024-02-16T02:26:56;8.70;99.90
18880;DHT22;9572;52.378;13.404;2024-02-16T02:29:23;8.70;99.90
18880;DHT22;9572;52.378;13.404;2024-02-16T02:31:50;8.70;99.90
18880;DHT22;9572;52.378;13.404;2024-02-16T02:34:17;8.70;99.90
18880;DHT22;9572;52.378;13.404;2024-02-16T02:36:44;8.70;99.90
18880;DHT22;9572;52.378;13.404;2024-02-16T02:39:11;8.70;99.90
18880;DHT22;9572;52.378;13.404;2024-02-16T02:41:40;8.70;99.90
18880;DHT22;9572;52.378;13.404;2024-02-16T02:44:07;8.70;99.90
18880;DHT22;9572;52.378;13.404;2024-02-16T02:46:34;8.70;99.90
18880;DHT22;9572;52.378;13.404;2024-02-16T02:49:01;8.70;99.90
18880;DHT22;9572;52.378;13.404;2024-02-16T02:51:29;8.70;99.90
18880;DHT22;9572;52.378;13.404;2024-02-16T02:53:56;8.70;99.90
18880;DHT22;9572;52.378;13.404;2024-02-16T02:56:22;8.70;99.90
18880;DHT22;9572;52.378;13.404;2024-02-16T02:58:51;8.70;99.90
18880;DHT22;9572;52.378;13.404;2024-02-16T03:01:18;8.70;99.90
18880;DHT22;9572;52.378;13.404;2024-02-16T03:03:46;8.80;99.90
18880;DHT22;9572;52.378;13.404;2024-02-16T03:06:13;8.70;99.90
18880;DHT22;9572;52.378;13.404;2024-02-16T03:08:43;8.70;99.90
18880;DHT22;9572;52.378;13.404;2024-02-16T03:11:10;8.70;99.90
18880;DHT22;9572;52.378;13.404;2024-02-16T03:13:37;8.70;99.90
18880;DHT22;9572;52.378;13.404;2024-02-16T03:16:06;8.70;99.90
18880;DHT22;9572;52.378;13.404;2024-02-16T03:18:34;8.70;99.90
18880;DHT22;9572;52.378;13.404;2024-02-16T03:21:01;8.70;99.90
18880;DHT22;9572;52.378;13.404;2024-02-16T03:23:28;8.70;99.90
18880;DHT22;9572;52.378;13.404;2024-02-16T03:25:55;8.80;99.90
18880;DHT22;9572;52.378;13.404;2024-02-16T03:28:22;8.80;99.90
18880;DHT22;9572;52.378;13.404;2024-02-16T03:30:49;8.80;99.90
18880;DHT22;9572;52.378;13.404;2024-02-16T03:33:17;8.70;99.90
18880;DHT22;9572;52.378;13.404;2024-02-16T03:35:44;8.70;99.90
18880;DHT22;9572;52.378;13.404;2024-02-16T03:38:11;8.70;99.90
18880;DHT22;9572;52.378;13.404;2024-02-16T03:40:38;8.70;99.90
18880;DHT22;9572;52.378;13.404;2024-02-16T03:43:05;8.70;99.90
18880;DHT22;9572;52.378;13.404;2024-02-16T03:45:32;8.70;99.90
18880;DHT22;9572;52.378;13.404;2024-02-16T03:47:59;8.60;99.90
18880;DHT22;9572;52.378;13.404;2024-02-16T03:50:27;8.60;99.90
18880;DHT22;9572;52.378;13.404;2024-02-16T03:52:54;8.60;99.90
18880;DHT22;9572;52.378;13.404;2024-02-16T03:55:21;8.60;99.90
18880;DHT22;9572;52.378;13.404;2024-02-16T03:57:49;8.70;99.90
18880;DHT22;9572;52.378;13.404;2024-02-16T04:00:16;8.70;99.90
18880;DHT22;9572;52.378;13.404;2024-02-16T04:02:43;8.70;99.90
18880;DHT22;9572;52.378;13.404;2024-02-16T04:05:11;8.70;99.90
18880;DHT22;9572;52.378;13.404;2024-02-16T04:07:39;8.70;99.90
18880;DHT22;9572;52.378;13.404;2024-02-16T04:10:06;8.70;99.90
18880;DHT22;9572;52.378;13.404;2024-02-16T04:12:33;8.70;99.90
18880;DHT22;9572;52.378;13.404;2024-02-16T04:15:01;8.70;99.90
18880;DHT22;9572;52.378;13.404;2024-02-16T04:17:28;8.70;99.90
18880;DHT22;9572;52.378;13.404;2024-02-16T04:19:55;8.80;99.90
18880;DHT22;9572;52.378;13.404;2024-02-16T04:22:22;8.80;99.90
18880;DHT22;9572;52.378;13.404;2024-02-16T04:24:50;8.80;99.90
18880;DHT22;9572;52.378;13.404;2024-02-16T04:27:17;8.80;99.90
18880;DHT22;9572;52.378;13.404;2024-02-16T04:29:44;8.80;99.90
18880;DHT22;9572;52.378;13.404;2024-02-16T04:32:11;8.90;99.90
18880;DHT22;9572;52.378;13.404;2024-02-16T04:34:38;8.90;99.90
18880;DHT22;9572;52.378;13.404;2024-02-16T04:37:05;8.90;99.90
18880;DHT22;9572;52.378;13.404;2024-02-16T04:39:32;8.90;99.90
18880;DHT22;9572;52.378;13.404;2024-02-16T04:42:00;8.90;99.90
18880;DHT22;9572;52.378;13.404;2024-02-16T04:44:28;8.90;99.90
18880;DHT22;9572;52.378;13.404;2024-02-16T04:46:55;8.90;99.90
18880;DHT22;9572;52.378;13.404;2024-02-16T04:49:22;8.90;99.90
18880;DHT22;9572;52.378;13.404;2024-02-16T04:51:49;8.90;99.90
18880;DHT22;9572;52.378;13.404;2024-02-16T04:54:16;8.90;99.90
18880;DHT22;9572;52.378;13.404;2024-02-16T04:56:42;8.90;99.90
18880;DHT22;9572;52.378;13.404;2024-02-16T04:59:11;8.90;99.90
18880;DHT22;9572;52.378;13.404;2024-02-16T05:01:37;8.90;99.90
18880;DHT22;9572;52.378;13.404;2024-02-16T05:04:04;8.90;99.90
18880;DHT22;9572;52.378;13.404;2024-02-16T05:06:32;8.90;99.90
18880;DHT22;9572;52.378;13.404;2024-02-16T05:08:59;8.80;99.90
18880;DHT22;9572;52.378;13.404;2024-02-16T05:11:26;8.90;99.90
18880;DHT22;9572;52.378;13.404;2024-02-16T05:13:55;8.90;99.90
18880;DHT22;9572;52.378;13.404;2024-02-16T05:16:23;8.90;99.90
18880;DHT22;9572;52.378;13.404;2024-02-16T05:18:50;8.90;99.90
18880;DHT22;9572;52.378;13.404;2024-02-16T05:21:17;8.90;99.90
18880;DHT22;9572;52.378;13.404;2024-02-16T05:23:44;8.90;99.90
18880;DHT22;9572;52.378;13.404;2024-02-16T05:26:10;8.90;99.90
18880;DHT22;9572;52.378;13.404;2024-02-16T05:28:37;8.80;99.90
18880;DHT22;9572;52.378;13.404;2024-02-16T05:31:13;8.80;99.90
18880;DHT22;9572;52.378;13.404;2024-02-16T05:33:43;8.70;99.90
18880;DHT22;9572;52.378;13.404;2024-02-16T05:36:10;8.80;99.90
18880;DHT22;9572;52.378;13.404;2024-02-16T05:38:37;8.70;99.90
18880;DHT22;9572;52.378;13.404;2024-02-16T05:41:08;8.70;99.90
18880;DHT22;9572;52.378;13.404;2024-02-16T05:43:36;8.70;99.90
18880;DHT22;9572;52.378;13.404;2024-02-16T05:46:03;8.70;99.90
18880;DHT22;9572;52.378;13.404;2024-02-16T05:48:32;8.70;99.90
18880;DHT22;9572;52.378;13.404;2024-02-16T05:51:02;8.60;99.90
18880;DHT22;9572;52.378;13.404;2024-02-16T05:53:28;8.60;99.90
18880;DHT22;9572;52.378;13.404;2024-02-16T05:55:55;8.60;99.90
18880;DHT22;9572;52.378;13.404;2024-02-16T05:58:22;8.60;99.90
18880;DHT22;9572;52.378;13.404;2024-02-16T06:00:49;8.50;99.90
18880;DHT22;9572;52.378;13.404;2024-02-16T06:03:16;8.50;99.90
18880;DHT22;9572;52.378;13.404;2024-02-16T06:05:43;8.50;99.90
18880;DHT22;9572;52.378;13.404;2024-02-16T06:08:12;8.50;99.90
18880;DHT22;9572;52.378;13.404;2024-02-16T06:10:41;8.50;99.90
18880;DHT22;9572;52.378;13.404;2024-02-16T06:13:08;8.50;99.90
18880;DHT22;9572;52.378;13.404;2024-02-16T06:15:35;8.40;99.90
18880;DHT22;9572;52.378;13.404;2024-02-16T06:18:03;8.40;99.90
18880;DHT22;9572;52.378;13.404;2024-02-16T06:20:30;8.40;99.90
18880;DHT22;9572;52.378;13.404;2024-02-16T06:22:56;8.40;99.90
18880;DHT22;9572;52.378;13.404;2024-02-16T06:25:25;8.40;99.90
18880;DHT22;9572;52.378;13.404;2024-02-16T06:27:52;8.40;99.90
18880;DHT22;9572;52.378;13.404;2024-02-16T06:30:19;8.30;99.90
18880;DHT22;9572;52.378;13.404;2024-02-16T06:32:45;8.40;99.90
18880;DHT22;9572;52.378;13.404;2024-02-16T06:35:13;8.40;99.90
18880;DHT22;9572;52.378;13.404;2024-02-16T06:37:40;8.50;99.90
18880;DHT22;9572;52.378;13.404;2024-02-16T06:40:07;8.50;99.90
18880;DHT22;9572;52.378;13.404;2024-02-16T06:42:37;8.50;99.90
18880;DHT22;9572;52.378;13.404;2024-02-16T06:45:05;8.50;99.90
18880;DHT22;9572;52.378;13.404;2024-02-16T06:47:32;8.50;99.90
18880;DHT22;9572;52.378;13.404;2024-02-16T06:49:59;8.60;99.90
18880;DHT22;9572;52.378;13.404;2024-02-16T06:52:26;8.60;99.90
18880;DHT22;9572;52.378;13.404;2024-02-16T06:54:54;8.70;99.90
18880;DHT22;9572;52.378;13.404;2024-02-16T06:57:21;8.70;99.90
18880;DHT22;9572;52.378;13.404;2024-02-16T06:59:49;8.80;99.90
18880;DHT22;9572;52.378;13.404;2024-02-16T07:02:18;8.80;99.90
18880;DHT22;9572;52.378;13.404;2024-02-16T07:04:45;8.80;99.90
18880;DHT22;9572;52.378;13.404;2024-02-16T07:07:13;8.80;99.90
18880;DHT22;9572;52.378;13.404;2024-02-16T07:09:40;8.70;99.90
18880;DHT22;9572;52.378;13.404;2024-02-16T07:12:08;8.80;99.90
18880;DHT22;9572;52.378;13.404;2024-02-16T07:14:34;8.80;99.90
18880;DHT22;9572;52.378;13.404;2024-02-16T07:17:03;8.80;99.90
18880;DHT22;9572;52.378;13.404;2024-02-16T07:19:33;8.80;99.90
18880;DHT22;9572;52.378;13.404;2024-02-16T07:21:59;8.80;99.90
18880;DHT22;9572;52.378;13.404;2024-02-16T07:24:26;8.80;99.90
18880;DHT22;9572;52.378;13.404;2024-02-16T07:26:54;8.80;99.90
18880;DHT22;9572;52.378;13.404;2024-02-16T07:29:21;8.80;99.90
18880;DHT22;9572;52.378;13.404;2024-02-16T07:31:48;8.90;99.90
18880;DHT22;9572;52.378;13.404;2024-02-16T07:34:18;8.90;99.90
18880;DHT22;9572;52.378;13.404;2024-02-16T07:36:45;8.90;99.90
18880;DHT22;9572;52.378;13.404;2024-02-16T07:39:12;8.90;99.90
18880;DHT22;9572;52.378;13.404;2024-02-16T07:41:39;9.00;99.90
18880;DHT22;9572;52.378;13.404;2024-02-16T07:44:06;9.00;99.90
18880;DHT22;9572;52.378;13.404;2024-02-16T07:46:33;9.00;99.90
18880;DHT22;9572;52.378;13.404;2024-02-16T07:49:01;9.00;99.90
18880;DHT22;9572;52.378;13.404;2024-02-16T07:51:31;9.10;99.90
18880;DHT22;9572;52.378;13.404;2024-02-16T07:53:58;9.10;99.90
18880;DHT22;9572;52.378;13.404;2024-02-16T07:56:25;9.20;99.90
18880;DHT22;9572;52.378;13.404;2024-02-16T07:58:51;9.30;99.90
18880;DHT22;9572;52.378;13.404;2024-02-16T08:01:18;9.50;99.90
18880;DHT22;9572;52.378;13.404;2024-02-16T08:03:45;9.60;99.90
18880;DHT22;9572;52.378;13.404;2024-02-16T08:06:12;9.70;99.90
18880;DHT22;9572;52.378;13.404;2024-02-16T08:08:40;9.80;99.90
18880;DHT22;9572;52.378;13.404;2024-02-16T08:11:07;10.00;99.90
18880;DHT22;9572;52.378;13.404;2024-02-16T08:13:34;10.20;99.90
18880;DHT22;9572;52.378;13.404;2024-02-16T08:16:01;10.30;99.90
18880;DHT22;9572;52.378;13.404;2024-02-16T08:18:32;10.40;99.90
18880;DHT22;9572;52.378;13.404;2024-02-16T08:20:59;10.50;99.90
18880;DHT22;9572;52.378;13.404;2024-02-16T08:23:26;10.60;99.90
18880;DHT22;9572;52.378;13.404;2024-02-16T08:25:54;10.70;99.90
18880;DHT22;9572;52.378;13.404;2024-02-16T08:28:21;10.80;99.90
18880;DHT22;9572;52.378;13.404;2024-02-16T08:30:48;10.90;99.90
18880;DHT22;9572;52.378;13.404;2024-02-16T08:33:14;11.00;99.90
18880;DHT22;9572;52.378;13.404;2024-02-16T08:35:41;11.00;99.90
18880;DHT22;9572;52.378;13.404;2024-02-16T08:38:08;11.10;99.90
18880;DHT22;9572;52.378;13.404;2024-02-16T08:40:36;11.30;99.90
18880;DHT22;9572;52.378;13.404;2024-02-16T08:43:05;11.40;99.90
18880;DHT22;9572;52.378;13.404;2024-02-16T08:45:32;11.40;99.90
18880;DHT22;9572;52.378;13.404;2024-02-16T08:47:59;11.50;99.90
18880;DHT22;9572;52.378;13.404;2024-02-16T08:50:29;11.60;99.90
18880;DHT22;9572;52.378;13.404;2024-02-16T08:52:56;11.60;99.90
18880;DHT22;9572;52.378;13.404;2024-02-16T08:55:23;11.70;99.90
18880;DHT22;9572;52.378;13.404;2024-02-16T08:57:49;11.90;99.90
18880;DHT22;9572;52.378;13.404;2024-02-16T09:00:18;12.00;99.90
18880;DHT22;9572;52.378;13.404;2024-02-16T09:02:46;12.00;99.90
18880;DHT22;9572;52.378;13.404;2024-02-16T09:05:13;12.00;99.90
18880;DHT22;9572;52.378;13.404;2024-02-16T09:07:39;12.10;99.90
18880;DHT22;9572;52.378;13.404;2024-02-16T09:10:07;12.10;99.90
18880;DHT22;9572;52.378;13.404;2024-02-16T09:12:34;12.20;99.90
18880;DHT22;9572;52.378;13.404;2024-02-16T09:15:01;12.30;99.90
18880;DHT22;9572;52.378;13.404;2024-02-16T09:17:30;12.30;99.90
18880;DHT22;9572;52.378;13.404;2024-02-16T09:19:57;12.30;99.90
18880;DHT22;9572;52.378;13.404;2024-02-16T09:22:24;12.40;99.90
18880;DHT22;9572;52.378;13.404;2024-02-16T09:24:51;12.60;99.90
18880;DHT22;9572;52.378;13.404;2024-02-16T09:27:20;12.60;99.90
18880;DHT22;9572;52.378;13.404;2024-02-16T09:29:48;12.60;99.90
18880;DHT22;9572;52.378;13.404;2024-02-16T09:32:14;12.70;99.90
18880;DHT22;9572;52.378;13.404;2024-02-16T09:34:53;12.70;99.90
18880;DHT22;9572;52.378;13.404;2024-02-16T09:37:21;12.70;99.90
18880;DHT22;9572;52.378;13.404;2024-02-16T09:39:48;12.80;99.90
18880;DHT22;9572;52.378;13.404;2024-02-16T09:42:15;12.70;99.90
18880;DHT22;9572;52.378;13.404;2024-02-16T09:44:44;12.80;99.90
18880;DHT22;9572;52.378;13.404;2024-02-16T09:47:13;12.80;99.90
18880;DHT22;9572;52.378;13.404;2024-02-16T09:49:44;12.80;99.90
18880;DHT22;9572;52.378;13.404;2024-02-16T09:52:13;12.80;99.90
18880;DHT22;9572;52.378;13.404;2024-02-16T09:54:40;12.80;99.90
18880;DHT22;9572;52.378;13.404;2024-02-16T09:57:07;12.90;99.90
18880;DHT22;9572;52.378;13.404;2024-02-16T09:59:34;13.00;99.90
18880;DHT22;9572;52.378;13.404;2024-02-16T10:02:01;13.00;99.90
18880;DHT22;9572;52.378;13.404;2024-02-16T10:04:28;13.10;99.90
18880;DHT22;9572;52.378;13.404;2024-02-16T10:06:55;13.20;99.90
18880;DHT22;9572;52.378;13.404;2024-02-16T10:09:25;13.30;99.90
18880;DHT22;9572;52.378;13.404;2024-02-16T10:11:52;13.40;99.90
18880;DHT22;9572;52.378;13.404;2024-02-16T10:14:18;13.40;99.90
18880;DHT22;9572;52.378;13.404;2024-02-16T10:16:45;13.40;99.90
18880;DHT22;9572;52.378;13.404;2024-02-16T10:19:13;13.40;99.90
18880;DHT22;9572;52.378;13.404;2024-02-16T10:21:40;13.50;99.90
18880;DHT22;9572;52.378;13.404;2024-02-16T10:24:09;13.60;99.90
18880;DHT22;9572;52.378;13.404;2024-02-16T10:26:37;13.60;99.90
18880;DHT22;9572;52.378;13.404;2024-02-16T10:29:10;13.60;99.90
18880;DHT22;9572;52.378;13.404;2024-02-16T10:31:37;13.70;99.90
18880;DHT22;9572;52.378;13.404;2024-02-16T10:34:05;13.80;99.90
18880;DHT22;9572;52.378;13.404;2024-02-16T10:36:35;13.90;99.90
18880;DHT22;9572;52.378;13.404;2024-02-16T10:39:04;13.80;99.90
18880;DHT22;9572;52.378;13.404;2024-02-16T10:41:33;13.80;99.90
18880;DHT22;9572;52.378;13.404;2024-02-16T10:44:03;13.80;99.90
18880;DHT22;9572;52.378;13.404;2024-02-16T10:46:31;13.80;99.90
18880;DHT22;9572;52.378;13.404;2024-02-16T10:48:58;13.70;99.90
18880;DHT22;9572;52.378;13.404;2024-02-16T10:51:29;13.80;99.90
18880;DHT22;9572;52.378;13.404;2024-02-16T10:54:00;13.80;99.90
18880;DHT22;9572;52.378;13.404;2024-02-16T10:56:27;13.80;99.90
18880;DHT22;9572;52.378;13.404;2024-02-16T10:58:55;13.80;99.90
18880;DHT22;9572;52.378;13.404;2024-02-16T11:01:23;13.90;99.90
18880;DHT22;9572;52.378;13.404;2024-02-16T11:04:00;13.90;99.90
18880;DHT22;9572;52.378;13.404;2024-02-16T11:06:28;13.90;99.90
18880;DHT22;9572;52.378;13.404;2024-02-16T11:09:00;14.00;99.90
18880;DHT22;9572;52.378;13.404;2024-02-16T11:11:28;14.10;99.90
18880;DHT22;9572;52.378;13.404;2024-02-16T11:13:55;14.00;99.90
18880;DHT22;9572;52.378;13.404;2024-02-16T11:16:24;14.10;99.90
18880;DHT22;9572;52.378;13.404;2024-02-16T11:18:51;14.30;99.90
18880;DHT22;9572;52.378;13.404;2024-02-16T11:21:18;14.40;99.90
18880;DHT22;9572;52.378;13.404;2024-02-16T11:23:44;14.40;99.90
18880;DHT22;9572;52.378;13.404;2024-02-16T11:26:12;14.50;99.90
18880;DHT22;9572;52.378;13.404;2024-02-16T11:28:41;14.60;99.90
18880;DHT22;9572;52.378;13.404;2024-02-16T11:31:09;14.70;99.90
18880;DHT22;9572;52.378;13.404;2024-02-16T11:33:43;14.90;99.90
18880;DHT22;9572;52.378;13.404;2024-02-16T11:36:10;14.90;99.90
18880;DHT22;9572;52.378;13.404;2024-02-16T11:38:37;15.20;99.90
18880;DHT22;9572;52.378;13.404;2024-02-16T11:41:05;15.30;99.90
18880;DHT22;9572;52.378;13.404;2024-02-16T11:43:33;15.40;99.90
18880;DHT22;9572;52.378;13.404;2024-02-16T11:46:11;15.60;99.90
18880;DHT22;9572;52.378;13.404;2024-02-16T11:48:39;15.70;99.90
18880;DHT22;9572;52.378;13.404;2024-02-16T11:51:06;15.90;99.90
18880;DHT22;9572;52.378;13.404;2024-02-16T11:53:33;15.90;99.90
18880;DHT22;9572;52.378;13.404;2024-02-16T11:56:00;15.90;99.90
18880;DHT22;9572;52.378;13.404;2024-02-16T11:58:27;15.80;99.90
18880;DHT22;9572;52.378;13.404;2024-02-16T12:00:54;15.70;99.90
18880;DHT22;9572;52.378;13.404;2024-02-16T12:03:25;15.70;99.90
18880;DHT22;9572;52.378;13.404;2024-02-16T12:05:56;15.50;99.90
18880;DHT22;9572;52.378;13.404;2024-02-16T12:08:31;15.50;99.90
18880;DHT22;9572;52.378;13.404;2024-02-16T12:10:58;15.40;99.90
18880;DHT22;9572;52.378;13.404;2024-02-16T12:13:25;15.40;99.90
18880;DHT22;9572;52.378;13.404;2024-02-16T12:15:52;15.50;99.90
18880;DHT22;9572;52.378;13.404;2024-02-16T12:18:21;15.60;99.90
18880;DHT22;9572;52.378;13.404;2024-02-16T12:21:00;15.60;99.90
18880;DHT22;9572;52.378;13.404;2024-02-16T12:23:28;15.80;99.90
18880;DHT22;9572;52.378;13.404;2024-02-16T12:25:56;15.90;99.90
18880;DHT22;9572;52.378;13.404;2024-02-16T12:28:24;16.00;99.90
18880;DHT22;9572;52.378;13.404;2024-02-16T12:30:51;16.00;99.90
18880;DHT22;9572;52.378;13.404;2024-02-16T12:33:18;16.00;99.90
18880;DHT22;9572;52.378;13.404;2024-02-16T12:35:45;16.00;99.90
18880;DHT22;9572;52.378;13.404;2024-02-16T12:38:14;15.90;99.90
18880;DHT22;9572;52.378;13.404;2024-02-16T12:40:42;15.80;99.90
18880;DHT22;9572;52.378;13.404;2024-02-16T12:43:09;15.80;99.90
18880;DHT22;9572;52.378;13.404;2024-02-16T12:45:38;15.80;99.90
18880;DHT22;9572;52.378;13.404;2024-02-16T12:48:05;15.90;99.90
18880;DHT22;9572;52.378;13.404;2024-02-16T12:50:33;16.00;99.90
18880;DHT22;9572;52.378;13.404;2024-02-16T12:52:59;16.10;99.90
18880;DHT22;9572;52.378;13.404;2024-02-16T12:55:28;16.00;99.90
18880;DHT22;9572;52.378;13.404;2024-02-16T12:57:56;16.00;99.90
18880;DHT22;9572;52.378;13.404;2024-02-16T13:00:23;16.00;99.90
18880;DHT22;9572;52.378;13.404;2024-02-16T13:02:50;16.10;99.90
18880;DHT22;9572;52.378;13.404;2024-02-16T13:05:17;16.20;99.90
18880;DHT22;9572;52.378;13.404;2024-02-16T13:07:44;16.20;99.90
18880;DHT22;9572;52.378;13.404;2024-02-16T13:10:11;16.10;99.90
18880;DHT22;9572;52.378;13.404;2024-02-16T13:12:39;16.10;99.90
18880;DHT22;9572;52.378;13.404;2024-02-16T13:15:08;16.00;99.90
18880;DHT22;9572;52.378;13.404;2024-02-16T13:17:35;15.90;99.90
18880;DHT22;9572;52.378;13.404;2024-02-16T13:20:03;15.90;99.90
18880;DHT22;9572;52.378;13.404;2024-02-16T13:22:35;15.90;99.90
18880;DHT22;9572;52.378;13.404;2024-02-16T13:25:03;16.00;99.90
18880;DHT22;9572;52.378;13.404;2024-02-16T13:27:31;16.00;99.90
18880;DHT22;9572;52.378;13.404;2024-02-16T13:29:59;15.90;99.90
18880;DHT22;9572;52.378;13.404;2024-02-16T13:32:26;15.90;99.90
18880;DHT22;9572;52.378;13.404;2024-02-16T13:34:53;15.90;99.90
18880;DHT22;9572;52.378;13.404;2024-02-16T13:37:19;15.80;99.90
18880;DHT22;9572;52.378;13.404;2024-02-16T13:39:46;15.70;99.90
18880;DHT22;9572;52.378;13.404;2024-02-16T13:42:13;15.70;99.90
18880;DHT22;9572;52.378;13.404;2024-02-16T13:44:40;15.60;99.90
18880;DHT22;9572;52.378;13.404;2024-02-16T13:47:09;15.60;99.90
18880;DHT22;9572;52.378;13.404;2024-02-16T13:49:35;15.50;99.90
18880;DHT22;9572;52.378;13.404;2024-02-16T13:52:02;15.50;99.90
18880;DHT22;9572;52.378;13.404;2024-02-16T13:54:29;15.50;99.90
18880;DHT22;9572;52.378;13.404;2024-02-16T13:56:56;15.50;99.90
18880;DHT22;9572;52.378;13.404;2024-02-16T13:59:23;15.50;99.90
18880;DHT22;9572;52.378;13.404;2024-02-16T14:01:50;15.50;99.90
18880;DHT22;9572;52.378;13.404;2024-02-16T14:04:18;15.40;99.90
18880;DHT22;9572;52.378;13.404;2024-02-16T14:06:45;15.40;99.90
18880;DHT22;9572;52.378;13.404;2024-02-16T14:09:12;15.30;99.90
18880;DHT22;9572;52.378;13.404;2024-02-16T14:11:39;15.30;99.90
18880;DHT22;9572;52.378;13.404;2024-02-16T14:14:08;15.30;99.90
18880;DHT22;9572;52.378;13.404;2024-02-16T14:16:35;15.30;99.90
18880;DHT22;9572;52.378;13.404;2024-02-16T14:19:02;15.30;99.90
18880;DHT22;9572;52.378;13.404;2024-02-16T14:21:30;15.30;99.90
18880;DHT22;9572;52.378;13.404;2024-02-16T14:23:58;15.40;99.90
18880;DHT22;9572;52.378;13.404;2024-02-16T14:26:25;15.50;99.90
18880;DHT22;9572;52.378;13.404;2024-02-16T14:28:51;15.50;99.90
18880;DHT22;9572;52.378;13.404;2024-02-16T14:31:18;15.50;99.90
18880;DHT22;9572;52.378;13.404;2024-02-16T14:33:46;15.50;99.90
18880;DHT22;9572;52.378;13.404;2024-02-16T14:36:13;15.50;99.90
18880;DHT22;9572;52.378;13.404;2024-02-16T14:38:42;15.60;99.90
18880;DHT22;9572;52.378;13.404;2024-02-16T14:41:08;15.60;99.90
18880;DHT22;9572;52.378;13.404;2024-02-16T14:43:35;15.50;99.90
18880;DHT22;9572;52.378;13.404;2024-02-16T14:46:04;15.50;99.90
18880;DHT22;9572;52.378;13.404;2024-02-16T14:48:30;15.40;99.90
18880;DHT22;9572;52.378;13.404;2024-02-16T14:50:57;15.50;99.90
18880;DHT22;9572;52.378;13.404;2024-02-16T14:53:24;15.40;99.90
18880;DHT22;9572;52.378;13.404;2024-02-16T14:55:52;15.40;99.90
18880;DHT22;9572;52.378;13.404;2024-02-16T14:58:19;15.40;99.90
18880;DHT22;9572;52.378;13.404;2024-02-16T15:00:46;15.30;99.90
18880;DHT22;9572;52.378;13.404;2024-02-16T15:03:14;15.30;99.90
18880;DHT22;9572;52.378;13.404;2024-02-16T15:05:42;15.30;99.90
18880;DHT22;9572;52.378;13.404;2024-02-16T15:08:09;15.30;99.90
18880;DHT22;9572;52.378;13.404;2024-02-16T15:10:36;15.30;99.90
18880;DHT22;9572;52.378;13.404;2024-02-16T15:13:05;15.30;99.90
18880;DHT22;9572;52.378;13.404;2024-02-16T15:15:32;15.30;99.90
18880;DHT22;9572;52.378;13.404;2024-02-16T15:17:58;15.20;99.90
18880;DHT22;9572;52.378;13.404;2024-02-16T15:20:26;15.20;99.90
18880;DHT22;9572;52.378;13.404;2024-02-16T15:22:53;15.10;99.90
18880;DHT22;9572;52.378;13.404;2024-02-16T15:25:20;15.20;99.90
18880;DHT22;9572;52.378;13.404;2024-02-16T15:27:47;15.00;99.90
18880;DHT22;9572;52.378;13.404;2024-02-16T15:30:16;15.10;99.90
18880;DHT22;9572;52.378;13.404;2024-02-16T15:32:43;14.90;99.90
18880;DHT22;9572;52.378;13.404;2024-02-16T15:35:10;15.00;99.90
18880;DHT22;9572;52.378;13.404;2024-02-16T15:37:37;14.90;99.90
18880;DHT22;9572;52.378;13.404;2024-02-16T15:40:05;14.80;99.90